Time;durP1;ratioP1;P1;durP2;ratioP2;P2;SDS_P1;SDS_P2;PMS_P1;PMS_P2;Temp;Humidity;BMP_temperature;BMP_pressure;BME280_temperature;BME280_humidity;BME280_pressure;Samples;Min_cycle;Max_cycle;Signal;HPM_P1;HPM_P2
2021/09/15 10:25:41;;;;;;;15.43;10.43;;;21.20;99.90;;;;;;12004090;28;20462;-65
2021/09/15 10:37:50;;;;;;;17.92;11.25;;;22.90;99.90;;;;;;11919324;28;21259;-63
2021/09/15 10:50:04;;;;;;;17.90;10.50;;;24.00;99.90;;;;;;11923867;28;20045;-63
2021/09/15 10:55:57;;;;;;;14.75;9.43;;;24.20;99.90;;;;;;11946715;28;20058;-64
2021/09/15 11:01:46;;;;;;;16.10;10.35;;;24.30;99.90;;;;;;11927119;28;20156;-64
2021/09/15 11:07:59;;;;;;;14.98;8.00;;;24.40;99.90;;;;;;11962227;28;20065;-64
2021/09/15 11:13:54;;;;;;;26.48;17.52;;;24.70;99.90;;;;;;11925891;28;20042;-63
2021/09/15 11:19:42;;;;;;;8.68;5.03;;;24.90;99.90;;;;;;11967192;28;20444;-64
2021/09/15 11:25:29;;;;;;;10.88;4.40;;;25.00;99.90;;;;;;11969974;28;20095;-65
2021/09/15 11:31:16;;;;;;;7.97;4.53;;;25.10;99.90;;;;;;11966025;28;20061;-64
2021/09/15 11:37:05;;;;;;;7.43;3.95;;;25.00;99.90;;;;;;11920225;28;20049;-64
2021/09/15 11:42:52;;;;;;;9.55;4.07;;;24.80;99.90;;;;;;11912032;28;20506;-65
2021/09/15 11:48:41;;;;;;;4.20;3.28;;;25.00;99.90;;;;;;11931705;28;20042;-65
2021/09/15 11:54:30;;;;;;;6.32;3.28;;;25.20;99.90;;;;;;11885675;28;20199;-65
2021/09/15 12:00:17;;;;;;;5.70;3.38;;;25.10;99.90;;;;;;11929775;28;20509;-65
2021/09/15 12:06:04;;;;;;;9.32;3.67;;;25.00;99.90;;;;;;11894193;28;20049;-65
2021/09/15 12:11:52;;;;;;;12.35;6.60;;;24.90;99.90;;;;;;11915063;28;20057;-65
2021/09/15 12:17:39;;;;;;;7.82;4.80;;;25.10;99.90;;;;;;11884296;28;20054;-65
2021/09/15 12:23:34;;;;;;;9.45;3.70;;;25.10;99.90;;;;;;11884941;28;20061;-65
2021/09/15 12:29:23;;;;;;;9.27;4.18;;;25.10;99.90;;;;;;11918133;28;20053;-65
2021/09/15 12:35:21;;;;;;;6.15;4.45;;;24.50;99.90;;;;;;11932073;28;20118;-63
2021/09/15 12:41:08;;;;;;;7.57;4.15;;;24.20;99.90;;;;;;11919389;28;20042;-65
2021/09/15 12:46:56;;;;;;;7.13;3.55;;;24.00;99.90;;;;;;11885299;28;20049;-64
2021/09/15 12:52:44;;;;;;;7.10;3.45;;;23.90;99.90;;;;;;11910858;28;20053;-64
2021/09/15 12:58:32;;;;;;;8.38;3.67;;;23.90;99.90;;;;;;11927503;28;20050;-64
2021/09/15 13:04:20;;;;;;;5.25;3.70;;;24.10;99.90;;;;;;11910558;28;20128;-65
2021/09/15 13:10:08;;;;;;;9.35;5.00;;;24.50;99.90;;;;;;11925106;28;20049;-65
2021/09/15 13:15:57;;;;;;;6.20;2.53;;;24.80;99.90;;;;;;11930658;28;20037;-65
2021/09/15 13:21:45;;;;;;;10.40;3.60;;;25.60;99.90;;;;;;11927802;28;20057;-65
2021/09/15 13:27:35;;;;;;;9.80;5.25;;;25.60;99.90;;;;;;11921762;28;20050;-65
2021/09/15 13:33:22;;;;;;;13.93;9.13;;;25.70;99.90;;;;;;11885059;28;20058;-65
2021/09/15 13:39:10;;;;;;;17.70;11.70;;;25.20;99.90;;;;;;11925120;28;20056;-65
2021/09/15 13:44:57;;;;;;;17.98;13.30;;;24.90;99.90;;;;;;11888359;28;20042;-65
2021/09/15 13:50:44;;;;;;;25.00;15.98;;;24.20;99.90;;;;;;11880245;28;20112;-64
2021/09/15 13:56:32;;;;;;;27.35;18.38;;;23.90;99.90;;;;;;11913300;28;20053;-64
2021/09/15 14:02:19;;;;;;;40.70;22.70;;;23.40;99.90;;;;;;11926755;28;20058;-65
2021/09/15 14:08:06;;;;;;;46.30;25.17;;;23.20;99.90;;;;;;11926257;28;20046;-64
2021/09/15 14:13:54;;;;;;;43.65;25.20;;;23.00;99.90;;;;;;11901835;28;20849;-64
2021/09/15 14:19:41;;;;;;;47.28;26.17;;;23.00;99.90;;;;;;11918328;28;20053;-65
2021/09/15 14:25:28;;;;;;;52.28;28.83;;;22.80;99.90;;;;;;11880919;28;20410;-64
2021/09/15 14:31:16;;;;;;;52.85;29.63;;;22.80;99.90;;;;;;11903437;28;20052;-64
2021/09/15 14:37:03;;;;;;;54.25;28.58;;;22.70;99.90;;;;;;11896874;28;20050;-65
2021/09/15 14:42:50;;;;;;;52.65;28.65;;;22.60;99.90;;;;;;11903476;28;20045;-65
2021/09/15 14:48:38;;;;;;;57.17;29.88;;;22.60;99.90;;;;;;11925250;28;20049;-65
2021/09/15 15:00:27;;;;;;;53.28;27.27;;;22.80;99.90;;;;;;11912517;28;20517;-65
2021/09/15 15:06:19;;;;;;;39.92;25.20;;;23.20;99.90;;;;;;11924581;28;20510;-65
2021/09/15 15:12:06;;;;;;;46.10;25.30;;;24.00;99.90;;;;;;11933224;28;20456;-64
2021/09/15 15:17:53;;;;;;;41.33;25.02;;;23.90;99.90;;;;;;11930965;28;20065;-64
2021/09/15 15:23:42;;;;;;;39.50;24.42;;;23.70;99.90;;;;;;11906303;28;20526;-64
2021/09/15 15:29:29;;;;;;;39.80;24.95;;;24.00;99.90;;;;;;11921890;28;21176;-64
2021/09/15 15:35:18;;;;;;;45.90;27.38;;;24.30;99.90;;;;;;11893285;28;21430;-64
2021/09/15 15:41:07;;;;;;;48.85;28.05;;;24.20;99.90;;;;;;11920197;28;20103;-64
2021/09/15 15:46:54;;;;;;;51.30;28.27;;;24.00;99.90;;;;;;11908555;28;20052;-65
2021/09/15 15:52:43;;;;;;;53.30;31.50;;;23.80;99.90;;;;;;11909977;28;20057;-64
2021/09/15 15:58:31;;;;;;;56.67;31.00;;;23.50;99.90;;;;;;11954082;28;20052;-64
2021/09/15 16:04:18;;;;;;;53.38;28.90;;;23.50;99.90;;;;;;11937754;28;20124;-66
2021/09/15 16:10:06;;;;;;;57.33;30.83;;;23.70;99.90;;;;;;11907154;28;20076;-64
2021/09/15 16:15:56;;;;;;;53.60;29.83;;;23.80;99.90;;;;;;11888312;28;21488;-64
2021/09/15 16:21:42;;;;;;;56.28;30.42;;;23.70;99.90;;;;;;11929192;28;20057;-64
2021/09/15 16:27:29;;;;;;;57.75;31.88;;;23.50;99.90;;;;;;11930561;28;20060;-64
2021/09/15 16:33:17;;;;;;;50.90;30.30;;;23.50;99.90;;;;;;11930745;28;20425;-64
2021/09/15 16:39:04;;;;;;;46.95;28.00;;;23.70;99.90;;;;;;11913515;28;20060;-64
2021/09/15 16:44:51;;;;;;;48.45;28.75;;;24.20;99.90;;;;;;11885742;28;20057;-64
2021/09/15 16:50:39;;;;;;;54.50;29.50;;;24.40;99.90;;;;;;11922106;28;20056;-64
2021/09/15 16:56:26;;;;;;;49.92;28.88;;;24.30;99.90;;;;;;11929503;28;20068;-65
2021/09/15 17:02:13;;;;;;;50.58;29.13;;;24.30;99.90;;;;;;11908366;28;20489;-65
2021/09/15 17:08:01;;;;;;;48.08;28.40;;;24.20;99.90;;;;;;11923742;28;20453;-65
2021/09/15 17:13:48;;;;;;;56.72;32.00;;;24.00;99.90;;;;;;11915089;28;20447;-64
2021/09/15 17:19:37;;;;;;;50.10;30.15;;;23.80;99.90;;;;;;11893164;28;20053;-64
2021/09/15 17:25:40;;;;;;;52.58;30.98;;;23.60;99.90;;;;;;11871128;28;20050;-63
2021/09/15 17:31:27;;;;;;;58.33;31.58;;;23.50;99.90;;;;;;11893044;28;20049;-64
2021/09/15 17:43:16;;;;;;;54.30;31.60;;;23.40;99.90;;;;;;11891723;28;20057;-64
2021/09/15 17:49:03;;;;;;;64.28;35.05;;;23.40;99.90;;;;;;11885469;28;20064;-63
2021/09/15 17:54:50;;;;;;;55.42;31.40;;;23.40;99.90;;;;;;11934775;28;20458;-64
2021/09/15 18:00:38;;;;;;;52.65;32.00;;;23.30;99.90;;;;;;11925192;28;20514;-64
2021/09/15 18:06:26;;;;;;;54.55;29.88;;;23.40;99.90;;;;;;11938091;28;20052;-64
2021/09/15 18:12:13;;;;;;;53.35;30.17;;;23.30;99.90;;;;;;11885794;28;20045;-64
2021/09/15 18:18:01;;;;;;;42.05;27.42;;;23.30;99.90;;;;;;11890218;28;20583;-64
2021/09/15 18:23:49;;;;;;;50.25;29.33;;;23.20;99.90;;;;;;11929862;28;20052;-64
2021/09/15 18:29:36;;;;;;;46.35;26.77;;;23.20;99.90;;;;;;11898339;28;20111;-64
2021/09/15 18:35:24;;;;;;;49.53;27.63;;;23.20;99.90;;;;;;11939350;28;20060;-63
2021/09/15 18:41:11;;;;;;;49.88;28.38;;;23.20;99.90;;;;;;11929283;28;20042;-63
2021/09/15 18:46:58;;;;;;;50.70;29.65;;;23.10;99.90;;;;;;11901625;28;20522;-63
2021/09/15 18:52:46;;;;;;;44.65;26.40;;;23.10;99.90;;;;;;11925640;28;20068;-63
2021/09/15 18:58:33;;;;;;;49.45;26.33;;;23.00;99.90;;;;;;11949153;28;20037;-63
2021/09/15 19:04:21;;;;;;;56.03;30.33;;;23.00;99.90;;;;;;11970606;28;20524;-63
2021/09/15 19:10:11;;;;;;;47.10;26.55;;;22.90;99.90;;;;;;11928267;28;20467;-63
2021/09/15 19:15:58;;;;;;;45.92;26.75;;;22.90;99.90;;;;;;11973471;28;20492;-63
2021/09/15 19:21:47;;;;;;;45.25;26.00;;;22.90;99.90;;;;;;11972615;28;20064;-64
2021/09/15 19:27:36;;;;;;;53.67;29.33;;;22.80;99.90;;;;;;11973052;28;20059;-64
2021/09/15 19:33:23;;;;;;;40.47;24.00;;;22.80;99.90;;;;;;11972586;28;20398;-64
2021/09/15 19:39:10;;;;;;;34.42;17.75;;;22.70;99.90;;;;;;11972832;28;20112;-64
